createdAt,value
2022-12-23T00:01:29.341Z,16.93
2022-12-23T00:03:59.500Z,17.13
2022-12-23T00:06:28.033Z,21.80
2022-12-23T00:08:59.016Z,17.63
2022-12-23T00:11:29.633Z,17.57
2022-12-23T00:14:21.219Z,18.73
2022-12-23T00:16:50.627Z,16.77
2022-12-23T00:19:18.980Z,18.43
2022-12-23T00:21:48.543Z,16.33
2022-12-23T00:24:16.555Z,15.50
2022-12-23T00:26:46.040Z,15.33
2022-12-23T00:29:14.125Z,14.77
2022-12-23T00:31:42.265Z,14.93
2022-12-23T00:34:11.886Z,15.80
2022-12-23T00:36:40.890Z,15.70
2022-12-23T00:39:30.193Z,16.10
2022-12-23T00:42:16.876Z,16.13
2022-12-23T00:44:45.164Z,15.73
2022-12-23T00:47:33.210Z,16.17
2022-12-23T00:50:00.256Z,13.73
2022-12-23T00:52:28.367Z,14.03
2022-12-23T00:54:56.741Z,16.07
2022-12-23T00:57:26.203Z,14.70
2022-12-23T00:59:54.363Z,15.63
2022-12-23T01:02:39.540Z,15.90
2022-12-23T01:05:25.805Z,14.20
2022-12-23T01:07:56.143Z,14.50
2022-12-23T01:10:24.302Z,14.27
2022-12-23T01:12:53.640Z,13.40
2022-12-23T01:15:21.670Z,13.77
2022-12-23T01:17:49.713Z,13.53
2022-12-23T01:20:17.929Z,14.13
2022-12-23T01:22:45.961Z,12.80
2022-12-23T01:25:14.277Z,13.40
2022-12-23T01:27:42.354Z,13.23
2022-12-23T01:30:12.465Z,13.13
2022-12-23T01:32:40.528Z,14.07
2022-12-23T01:35:09.155Z,12.13
2022-12-23T01:37:37.733Z,15.23
2022-12-23T01:40:06.828Z,12.67
2022-12-23T01:42:47.513Z,12.80
2022-12-23T01:45:19.671Z,13.10
2022-12-23T01:47:53.050Z,12.67
2022-12-23T01:50:26.638Z,13.37
2022-12-23T01:53:07.368Z,12.43
2022-12-23T01:55:41.732Z,11.83
2022-12-23T01:58:14.690Z,11.57
2022-12-23T02:01:01.594Z,11.57
2022-12-23T02:03:45.706Z,9.93
2022-12-23T02:06:39.281Z,10.23
2022-12-23T02:09:19.774Z,10.63
2022-12-23T02:12:21.555Z,9.77
2022-12-23T02:15:25.782Z,9.83
2022-12-23T02:18:06.544Z,9.70
2022-12-23T02:21:03.001Z,10.03
2022-12-23T02:23:48.895Z,9.93
2022-12-23T02:26:46.692Z,11.50
2022-12-23T02:29:36.984Z,10.43
2022-12-23T02:32:12.270Z,10.30
2022-12-23T02:34:46.848Z,9.10
2022-12-23T02:37:21.719Z,7.80
2022-12-23T02:39:56.246Z,9.10
2022-12-23T02:42:30.296Z,9.03
2022-12-23T02:45:04.509Z,8.70
2022-12-23T02:47:39.038Z,7.63
2022-12-23T02:50:12.717Z,8.80
2022-12-23T02:52:45.200Z,7.83
2022-12-23T02:55:17.394Z,7.80
2022-12-23T02:57:49.414Z,8.50
2022-12-23T03:00:18.996Z,8.83
2022-12-23T03:02:49.316Z,9.17
2022-12-23T03:05:30.784Z,8.97
2022-12-23T03:08:04.091Z,7.93
2022-12-23T03:10:45.173Z,7.93
2022-12-23T03:13:26.340Z,8.20
2022-12-23T03:16:01.928Z,7.70
2022-12-23T03:18:42.210Z,7.07
2022-12-23T03:21:15.800Z,7.67
2022-12-23T03:23:55.547Z,7.60
2022-12-23T03:26:31.270Z,7.47
2022-12-23T03:29:07.091Z,7.30
2022-12-23T03:31:37.006Z,7.00
2022-12-23T03:34:12.286Z,6.77
2022-12-23T03:36:46.016Z,7.60
2022-12-23T03:39:18.505Z,6.97
2022-12-23T03:41:52.686Z,7.87
2022-12-23T03:44:27.301Z,6.87
2022-12-23T03:47:02.863Z,7.30
2022-12-23T03:49:36.967Z,6.87
2022-12-23T03:52:14.522Z,6.67
2022-12-23T03:54:52.844Z,8.13
2022-12-23T03:57:23.123Z,6.50
2022-12-23T03:59:51.971Z,6.37
2022-12-23T04:02:26.338Z,6.53
2022-12-23T04:05:15.196Z,7.23
2022-12-23T04:07:47.508Z,6.33
2022-12-23T04:10:19.086Z,6.37
2022-12-23T04:12:47.315Z,6.50
2022-12-23T04:15:21.138Z,6.47
2022-12-23T04:17:49.886Z,6.40
2022-12-23T04:20:19.785Z,5.53
2022-12-23T04:22:47.867Z,6.33
2022-12-23T04:25:17.511Z,5.77
2022-12-23T04:27:45.554Z,6.17
2022-12-23T04:30:14.875Z,6.73
2022-12-23T04:32:43.794Z,5.27
2022-12-23T04:35:13.292Z,5.90
2022-12-23T04:37:42.800Z,5.90
2022-12-23T04:40:11.429Z,5.73
2022-12-23T04:42:39.679Z,5.67
2022-12-23T04:45:09.161Z,5.30
2022-12-23T04:47:37.635Z,5.33
2022-12-23T04:50:06.427Z,4.97
2022-12-23T04:52:34.429Z,5.47
2022-12-23T04:55:03.839Z,5.60
2022-12-23T04:57:33.111Z,5.53
2022-12-23T05:00:01.368Z,5.07
2022-12-23T05:02:29.595Z,5.30
2022-12-23T05:04:57.616Z,4.80
2022-12-23T05:07:25.851Z,5.33
2022-12-23T05:09:53.983Z,5.10
2022-12-23T05:12:23.462Z,4.90
2022-12-23T05:14:51.580Z,4.50
2022-12-23T05:17:19.608Z,4.93
2022-12-23T05:19:47.556Z,4.23
2022-12-23T05:22:15.691Z,4.90
2022-12-23T05:24:43.690Z,4.67
2022-12-23T05:27:11.881Z,5.00
2022-12-23T05:29:41.324Z,4.70
2022-12-23T05:32:11.964Z,5.20
2022-12-23T05:34:40.173Z,4.77
2022-12-23T05:37:08.306Z,5.03
2022-12-23T05:39:36.270Z,3.97
2022-12-23T05:42:04.504Z,4.70
2022-12-23T05:44:32.635Z,4.67
2022-12-23T05:47:02.421Z,4.50
2022-12-23T05:49:30.465Z,3.90
2022-12-23T05:51:58.691Z,4.23
2022-12-23T05:54:27.093Z,4.30
2022-12-23T05:56:55.245Z,4.70
2022-12-23T05:59:27.642Z,4.20
2022-12-23T06:01:58.955Z,4.67
2022-12-23T06:04:28.761Z,4.20
2022-12-23T06:06:56.805Z,4.40
2022-12-23T06:09:25.136Z,4.13
2022-12-23T06:11:53.377Z,4.80
2022-12-23T06:14:26.844Z,4.27
2022-12-23T06:16:56.804Z,3.93
2022-12-23T06:19:25.124Z,3.90
2022-12-23T06:21:54.529Z,4.00
2022-12-23T06:24:22.564Z,3.93
2022-12-23T06:26:56.508Z,3.83
2022-12-23T06:29:25.511Z,4.23
2022-12-23T06:31:53.840Z,4.17
2022-12-23T06:34:21.974Z,4.93
2022-12-23T06:36:50.247Z,4.47
2022-12-23T06:39:20.439Z,3.87
2022-12-23T06:41:48.393Z,4.83
2022-12-23T06:44:16.364Z,4.63
2022-12-23T06:46:44.481Z,4.50
2022-12-23T06:49:13.721Z,4.23
2022-12-23T06:51:42.130Z,4.93
2022-12-23T06:54:12.070Z,4.77
2022-12-23T06:56:41.626Z,4.80
2022-12-23T06:59:09.814Z,5.13
2022-12-23T07:01:37.934Z,5.57
2022-12-23T07:04:06.657Z,4.47
2022-12-23T07:06:34.751Z,5.80
2022-12-23T07:09:02.774Z,5.83
2022-12-23T07:11:31.055Z,5.20
2022-12-23T07:14:00.597Z,6.70
2022-12-23T07:16:28.794Z,4.77
2022-12-23T07:18:56.973Z,5.13
2022-12-23T07:21:29.590Z,4.87
2022-12-23T07:23:58.212Z,4.80
2022-12-23T07:26:26.181Z,8.30
2022-12-23T07:28:54.277Z,5.40
2022-12-23T07:31:23.952Z,4.97
2022-12-23T07:33:52.249Z,5.13
2022-12-23T07:36:20.502Z,4.83
2022-12-23T07:38:50.579Z,4.53
2022-12-23T07:41:18.800Z,4.60
2022-12-23T07:43:46.896Z,4.57
2022-12-23T07:46:15.124Z,4.63
2022-12-23T07:48:44.527Z,4.47
2022-12-23T07:51:12.876Z,5.10
2022-12-23T07:53:40.935Z,4.60
2022-12-23T07:56:09.613Z,4.73
2022-12-23T07:58:37.699Z,5.37
2022-12-23T08:01:08.650Z,4.73
2022-12-23T08:03:37.780Z,4.87
2022-12-23T08:06:09.351Z,5.10
2022-12-23T08:08:37.373Z,4.20
2022-12-23T08:11:09.227Z,5.37
2022-12-23T08:13:39.695Z,4.70
2022-12-23T08:16:09.104Z,5.63
2022-12-23T08:18:39.155Z,5.00
2022-12-23T08:21:11.705Z,5.17
2022-12-23T08:23:39.832Z,5.07
2022-12-23T08:26:10.623Z,4.87
2022-12-23T08:28:39.588Z,5.13
2022-12-23T08:31:10.538Z,5.37
2022-12-23T08:33:39.717Z,5.93
2022-12-23T08:36:19.081Z,5.10
2022-12-23T08:38:50.600Z,5.63
2022-12-23T08:41:21.126Z,5.40
2022-12-23T08:43:49.149Z,5.37
2022-12-23T08:46:17.246Z,7.20
2022-12-23T08:48:49.094Z,5.20
2022-12-23T08:51:20.954Z,5.63
2022-12-23T08:53:51.575Z,5.57
2022-12-23T08:56:24.960Z,6.30
2022-12-23T08:58:54.965Z,6.10
2022-12-23T09:01:25.402Z,8.50
2022-12-23T09:03:54.605Z,7.10
2022-12-23T09:06:29.572Z,6.37
2022-12-23T09:08:59.006Z,7.33
2022-12-23T09:11:29.072Z,5.57
2022-12-23T09:13:59.531Z,6.20
2022-12-23T09:16:27.770Z,5.83
2022-12-23T09:18:55.968Z,5.80
2022-12-23T09:21:26.122Z,5.30
2022-12-23T09:23:54.246Z,5.17
2022-12-23T09:26:24.272Z,5.23
2022-12-23T09:28:53.029Z,5.00
2022-12-23T09:31:23.370Z,4.80
2022-12-23T09:33:54.076Z,4.67
2022-12-23T09:36:23.306Z,5.37
2022-12-23T09:38:57.489Z,5.70
2022-12-23T09:41:48.832Z,6.47
2022-12-23T09:44:41.817Z,5.50
2022-12-23T09:47:14.190Z,6.40
2022-12-23T09:49:48.606Z,6.87
2022-12-23T09:52:21.887Z,4.50
2022-12-23T09:54:54.677Z,4.80
2022-12-23T09:57:27.925Z,4.30
2022-12-23T10:00:08.252Z,4.83
2022-12-23T10:03:01.503Z,6.70
2022-12-23T10:05:40.750Z,8.67
2022-12-23T10:08:13.572Z,4.90
2022-12-23T10:10:46.457Z,5.10
2022-12-23T10:13:25.396Z,5.00
2022-12-23T10:15:56.187Z,5.03
2022-12-23T10:18:29.017Z,6.77
2022-12-23T10:21:04.397Z,4.93
2022-12-23T10:23:37.973Z,4.90
2022-12-23T10:26:18.891Z,4.50
2022-12-23T10:28:47.066Z,4.43
2022-12-23T10:34:18.770Z,4.80
2022-12-23T10:36:56.329Z,4.60
2022-12-23T10:39:33.473Z,4.93
2022-12-23T10:42:13.864Z,4.97
2022-12-23T10:45:05.654Z,3.80
2022-12-23T10:47:49.080Z,4.43
2022-12-23T10:50:37.144Z,5.23
2022-12-23T10:53:11.757Z,5.23
2022-12-23T10:55:40.781Z,4.63
2022-12-23T10:58:15.751Z,4.60
2022-12-23T11:00:47.350Z,5.13
2022-12-23T11:03:23.278Z,4.87
2022-12-23T11:05:53.771Z,4.33
2022-12-23T11:08:23.162Z,4.77
2022-12-23T11:10:51.695Z,4.00
2022-12-23T11:13:34.189Z,4.60
2022-12-23T11:16:17.551Z,4.60
2022-12-23T11:19:01.540Z,4.27
2022-12-23T11:21:31.225Z,5.73
2022-12-23T11:24:19.184Z,4.77
2022-12-23T11:26:50.585Z,5.40
2022-12-23T11:29:24.861Z,5.77
2022-12-23T11:31:53.352Z,7.10
2022-12-23T11:34:23.885Z,19.87
2022-12-23T11:37:00.280Z,23.40
2022-12-23T11:39:34.944Z,21.53
2022-12-23T11:42:08.173Z,9.40
2022-12-23T11:44:42.485Z,6.00
2022-12-23T11:47:26.342Z,5.30
2022-12-23T11:49:56.335Z,4.97
2022-12-23T11:52:25.761Z,5.53
2022-12-23T11:54:55.766Z,4.97
2022-12-23T11:57:32.143Z,5.30
2022-12-23T12:00:05.294Z,5.27
2022-12-23T12:02:39.266Z,5.43
2022-12-23T12:05:26.481Z,5.60
2022-12-23T12:08:01.107Z,4.63
2022-12-23T12:10:32.803Z,6.37
2022-12-23T12:13:04.281Z,5.07
2022-12-23T12:15:42.863Z,5.47
2022-12-23T12:18:15.841Z,5.53
2022-12-23T12:20:47.788Z,5.63
2022-12-23T12:23:19.911Z,5.27
2022-12-23T12:25:51.729Z,5.67
2022-12-23T12:28:23.788Z,5.27
2022-12-23T12:31:02.349Z,5.27
2022-12-23T12:33:36.925Z,4.77
2022-12-23T12:36:13.951Z,4.70
2022-12-23T12:38:47.690Z,4.50
2022-12-23T12:41:19.910Z,4.40
2022-12-23T12:43:52.830Z,5.00
2022-12-23T12:46:31.828Z,4.53
2022-12-23T12:49:06.677Z,6.53
2022-12-23T12:51:41.678Z,5.30
2022-12-23T12:54:17.847Z,5.23
2022-12-23T12:56:50.481Z,5.30
2022-12-23T12:59:20.735Z,5.27
2022-12-23T13:02:01.820Z,11.00
2022-12-23T13:04:58.014Z,5.83
2022-12-23T13:07:39.892Z,5.63
2022-12-23T13:10:17.190Z,5.70
2022-12-23T13:12:55.940Z,4.70
2022-12-23T13:15:29.712Z,8.07
2022-12-23T13:18:20.756Z,6.57
2022-12-23T13:20:57.204Z,13.47
2022-12-23T13:23:43.435Z,8.17
2022-12-23T13:26:20.634Z,6.00
2022-12-23T13:29:01.189Z,7.03
2022-12-23T13:31:38.899Z,6.37
2022-12-23T13:34:24.565Z,12.63
2022-12-23T13:37:01.615Z,8.23
2022-12-23T13:39:46.813Z,28.60
2022-12-23T13:42:23.070Z,56.07
2022-12-23T13:44:51.711Z,68.63
2022-12-23T13:47:36.531Z,23.97
2022-12-23T13:50:12.901Z,15.47
2022-12-23T13:53:00.234Z,8.13
2022-12-23T13:55:48.889Z,7.67
2022-12-23T13:58:19.509Z,7.80
2022-12-23T14:00:47.897Z,7.17
2022-12-23T14:03:23.705Z,7.40
2022-12-23T14:05:54.595Z,7.77
2022-12-23T14:08:27.538Z,7.33
2022-12-23T14:10:58.612Z,7.63
2022-12-23T14:13:29.393Z,8.33
2022-12-23T14:16:20.259Z,7.40
2022-12-23T14:19:23.274Z,7.07
2022-12-23T14:22:03.820Z,7.47
2022-12-23T14:25:12.532Z,8.37
2022-12-23T14:27:52.321Z,7.07
2022-12-23T14:30:26.835Z,6.13
2022-12-23T14:32:59.211Z,8.07
2022-12-23T14:35:48.927Z,5.97
2022-12-23T14:38:34.524Z,6.60
2022-12-23T14:41:23.725Z,5.47
2022-12-23T14:43:59.524Z,9.43
2022-12-23T14:46:55.790Z,10.93
2022-12-23T14:49:42.868Z,22.27
2022-12-23T14:52:45.103Z,12.13
2022-12-23T14:55:43.957Z,30.43
2022-12-23T14:58:47.734Z,39.87
2022-12-23T15:01:19.316Z,39.17
2022-12-23T15:03:59.089Z,11.93
2022-12-23T15:06:36.404Z,11.73
2022-12-23T15:09:06.227Z,8.47
2022-12-23T15:11:37.729Z,26.73
2022-12-23T15:14:12.231Z,35.93
2022-12-23T15:16:45.230Z,77.70
2022-12-23T15:19:23.986Z,105.40
2022-12-23T15:22:03.266Z,113.13
2022-12-23T15:24:35.888Z,84.77
2022-12-23T15:27:26.713Z,43.00
2022-12-23T15:29:55.927Z,14.77
2022-12-23T15:32:25.294Z,38.37
2022-12-23T15:34:56.681Z,15.77
2022-12-23T15:37:29.437Z,64.90
2022-12-23T15:40:06.172Z,199.07
2022-12-23T15:42:48.655Z,99.30
2022-12-23T15:45:32.248Z,91.37
2022-12-23T15:48:00.451Z,81.57
2022-12-23T15:50:29.790Z,124.20
2022-12-23T15:53:05.431Z,185.07
2022-12-23T15:55:35.939Z,80.17
2022-12-23T15:58:05.907Z,34.40
2022-12-23T16:00:42.521Z,35.03
2022-12-23T16:03:26.629Z,27.83
2022-12-23T16:05:55.072Z,16.57
2022-12-23T16:08:29.870Z,24.40
2022-12-23T16:11:06.467Z,37.03
2022-12-23T16:13:37.422Z,21.83
2022-12-23T16:16:35.449Z,17.23
2022-12-23T16:19:03.556Z,19.00
2022-12-23T16:21:34.758Z,38.83
2022-12-23T16:24:07.690Z,13.77
2022-12-23T16:26:41.542Z,11.90
2022-12-23T16:29:12.617Z,69.97
2022-12-23T16:31:48.300Z,20.83
2022-12-23T16:34:20.441Z,13.07
2022-12-23T16:36:51.152Z,17.50
2022-12-23T16:39:22.808Z,12.67
2022-12-23T16:41:51.590Z,12.63
2022-12-23T16:44:20.959Z,13.37
2022-12-23T16:46:52.095Z,13.53
2022-12-23T16:49:22.454Z,16.37
2022-12-23T16:51:54.052Z,15.17
2022-12-23T16:54:22.287Z,14.47
2022-12-23T16:56:50.483Z,20.00
2022-12-23T16:59:21.110Z,21.70
2022-12-23T17:01:50.457Z,23.97
2022-12-23T17:04:18.579Z,21.20
2022-12-23T17:06:47.574Z,18.97
2022-12-23T17:09:15.743Z,20.10
2022-12-23T17:11:46.372Z,32.63
2022-12-23T17:14:17.300Z,21.77
2022-12-23T17:16:47.880Z,42.60
2022-12-23T17:19:27.229Z,31.90
2022-12-23T17:22:01.583Z,25.30
2022-12-23T17:24:29.933Z,27.63
2022-12-23T17:26:58.128Z,25.40
2022-12-23T17:29:26.435Z,21.57
2022-12-23T17:31:56.149Z,33.37
2022-12-23T17:34:25.741Z,24.83
2022-12-23T17:36:54.440Z,21.03
2022-12-23T17:39:23.259Z,19.90
2022-12-23T17:41:51.364Z,19.57
2022-12-23T17:44:19.541Z,18.63
2022-12-23T17:46:48.176Z,18.93
2022-12-23T17:49:17.692Z,19.47
2022-12-23T17:51:45.909Z,25.27
2022-12-23T17:54:23.092Z,21.30
2022-12-23T17:56:51.580Z,23.93
2022-12-23T17:59:19.554Z,30.90
2022-12-23T18:01:47.969Z,26.13
2022-12-23T18:04:17.408Z,27.43
2022-12-23T18:06:45.469Z,25.00
2022-12-23T18:09:13.475Z,26.93
2022-12-23T18:11:44.485Z,26.10
2022-12-23T18:14:18.624Z,28.20
2022-12-23T18:16:46.767Z,31.97
2022-12-23T18:19:20.233Z,31.40
2022-12-23T18:21:48.954Z,33.77
2022-12-23T18:24:17.420Z,31.53
2022-12-23T18:26:45.642Z,27.10
2022-12-23T18:29:13.617Z,28.07
2022-12-23T18:31:50.923Z,28.40
2022-12-23T18:34:21.652Z,29.87
2022-12-23T18:36:51.691Z,43.83
2022-12-23T18:39:20.163Z,30.00
2022-12-23T18:41:48.199Z,36.50
2022-12-23T18:44:19.594Z,48.93
2022-12-23T18:46:48.275Z,30.63
2022-12-23T18:49:16.359Z,38.20
2022-12-23T18:51:45.838Z,31.50
2022-12-23T18:54:15.414Z,36.63
2022-12-23T18:56:43.870Z,34.07
2022-12-23T18:59:21.335Z,37.40
2022-12-23T19:01:56.254Z,30.37
2022-12-23T19:04:24.584Z,34.87
2022-12-23T19:06:55.415Z,35.07
2022-12-23T19:09:25.038Z,41.27
2022-12-23T19:11:54.835Z,39.23
2022-12-23T19:14:23.279Z,55.67
2022-12-23T19:16:52.587Z,42.70
2022-12-23T19:19:20.924Z,41.60
2022-12-23T19:21:48.990Z,39.17
2022-12-23T19:24:18.752Z,70.60
2022-12-23T19:26:48.311Z,71.20
2022-12-23T19:29:16.716Z,82.37
2022-12-23T19:31:44.658Z,178.63
2022-12-23T19:34:15.379Z,155.93
2022-12-23T19:36:44.329Z,136.87
2022-12-23T19:39:17.278Z,113.23
2022-12-23T19:41:47.001Z,177.17
2022-12-23T19:44:15.099Z,136.97
2022-12-23T19:46:43.358Z,58.50
2022-12-23T19:49:19.518Z,69.03
2022-12-23T19:51:48.824Z,75.03
2022-12-23T19:54:18.222Z,70.30
2022-12-23T19:56:51.122Z,150.87
2022-12-23T19:59:20.175Z,115.37
2022-12-23T20:01:48.503Z,106.97
2022-12-23T20:04:16.680Z,174.80
2022-12-23T20:06:45.074Z,153.33
2022-12-23T20:09:14.408Z,193.53
2022-12-23T20:11:44.504Z,145.70
2022-12-23T20:14:16.420Z,148.77
2022-12-23T20:16:45.194Z,122.47
2022-12-23T20:19:13.340Z,79.30
2022-12-23T20:21:41.561Z,79.70
2022-12-23T20:24:10.691Z,57.83
2022-12-23T20:26:39.466Z,41.90
2022-12-23T20:29:07.752Z,35.93
2022-12-23T20:31:38.979Z,41.43
2022-12-23T20:34:08.773Z,39.17
2022-12-23T20:36:37.820Z,43.23
2022-12-23T20:39:06.844Z,39.97
2022-12-23T20:41:35.202Z,39.80
2022-12-23T20:44:33.053Z,46.57
2022-12-23T20:46:53.432Z,39.97
2022-12-23T20:49:21.919Z,41.30
2022-12-23T20:51:50.069Z,35.37
2022-12-23T20:54:18.254Z,38.97
2022-12-23T20:56:46.281Z,36.87
2022-12-23T20:59:14.376Z,41.00
2022-12-23T21:01:42.772Z,42.03
2022-12-23T21:04:15.697Z,38.47
2022-12-23T21:06:47.099Z,37.77
2022-12-23T21:09:16.489Z,35.33
2022-12-23T21:11:46.692Z,36.57
2022-12-23T21:14:15.753Z,35.57
2022-12-23T21:16:43.938Z,44.77
2022-12-23T21:19:18.236Z,40.87
2022-12-23T21:21:46.870Z,33.40
2022-12-23T21:24:15.045Z,31.53
2022-12-23T21:26:43.774Z,30.33
2022-12-23T21:29:12.203Z,27.97
2022-12-23T21:31:43.617Z,30.87
2022-12-23T21:34:14.364Z,29.83
2022-12-23T21:36:44.001Z,23.90
2022-12-23T21:39:14.919Z,33.03
2022-12-23T21:41:43.117Z,31.67
2022-12-23T21:44:13.582Z,25.93
2022-12-23T21:46:41.974Z,20.27
2022-12-23T21:49:10.656Z,21.30
2022-12-23T21:51:41.101Z,18.40
2022-12-23T21:54:12.887Z,18.43
2022-12-23T21:56:41.857Z,17.40
2022-12-23T21:59:12.965Z,21.40
2022-12-23T22:01:41.700Z,19.37
2022-12-23T22:04:09.971Z,20.57
2022-12-23T22:06:40.185Z,21.33
2022-12-23T22:09:11.613Z,27.67
2022-12-23T22:11:39.938Z,20.80
2022-12-23T22:14:10.015Z,21.43
2022-12-23T22:16:38.222Z,20.33
2022-12-23T22:19:08.693Z,19.10
2022-12-23T22:21:39.749Z,20.23
2022-12-23T22:24:08.557Z,20.10
2022-12-23T22:26:38.100Z,21.43
2022-12-23T22:29:07.313Z,21.80
2022-12-23T22:31:39.978Z,22.07
2022-12-23T22:34:09.341Z,22.30
2022-12-23T22:36:37.717Z,21.60
2022-12-23T22:39:07.834Z,19.43
2022-12-23T22:41:37.503Z,21.43
2022-12-23T22:44:05.877Z,22.87
2022-12-23T22:46:34.352Z,22.93
2022-12-23T22:49:02.624Z,19.43
2022-12-23T22:51:32.150Z,19.77
2022-12-23T22:54:02.605Z,20.03
2022-12-23T22:56:30.691Z,22.93
2022-12-23T22:59:00.346Z,21.50
2022-12-23T23:01:30.602Z,19.00
2022-12-23T23:04:01.252Z,20.67
2022-12-23T23:06:31.092Z,20.33
2022-12-23T23:08:59.836Z,19.37
2022-12-23T23:11:29.262Z,18.40
2022-12-23T23:13:58.041Z,16.37
2022-12-23T23:16:27.947Z,18.37
2022-12-23T23:18:56.212Z,17.80
2022-12-23T23:21:24.414Z,17.27
2022-12-23T23:23:52.594Z,17.27
2022-12-23T23:26:21.568Z,17.00
2022-12-23T23:28:49.955Z,17.00
2022-12-23T23:31:41.249Z,16.80
2022-12-23T23:34:07.287Z,16.70
2022-12-23T23:36:35.461Z,16.07
2022-12-23T23:39:03.458Z,18.40
2022-12-23T23:41:31.486Z,16.57
2022-12-23T23:44:02.003Z,16.30
2022-12-23T23:46:31.779Z,17.20
2022-12-23T23:49:00.094Z,16.77
2022-12-23T23:51:29.463Z,16.87
2022-12-23T23:53:57.536Z,16.00
2022-12-23T23:56:27.296Z,15.80
2022-12-23T23:58:56.908Z,16.20
